Thunder radar more information blitzortung!


Radar de pluja more information rain snow radar


Visita la nostra xarxa de llocs de meteo:

Template documentation
and downloads

And another site



No particular awareness of the weather is required.    There are no Weather-warnings

Pagina Historial Weather Underground text

Diari Resum Setembre 7, 2017 Unitats:  Imperial    Mètric   Tant
« Previous Dia
SegĂźent Dia »
Diari Setmana Mensual Anual Personalitzada
  Maxima: Minima: Media:
Temperatura: TemperatureC °F 16.1 °F 23.4 °F
Punt de rosada: DewpointC °F 8.8 °F 12.7 °F
Humitat: Humidity % 37 % 51 %
Wind Speed: WindSpeedKMH mph 0.0 mph 5.7 mph
RĂ fegues de vent: WindSpeedGustKMH mph - -
Vent:- - SSW
Pression baro: PressurehPa in 1013.8 in -
Precipitacions: 0.0 in    
Historical Graphs
 
 
Dades de taula per Setembre 7, 2017
Temps Temperatura Punt de rosada Pression baro Vent Wind Speed RĂ fegues de vent Humitat Rainfall Rate (Hourly)
TemperatureC °F DewpointC °F PressurehPa in Calm     Humidity % HourlyPrecipMM in
00:04 22.8 °F 18.8 °F 1017.8 in Calm     78 % 0.0 in
00:05 19.0 °F 11.1 °F 1015.8 in West 3.2 mph 4.8 mph 60 % 0.0 in
00:15 18.7 °F 10.8 °F 1015.8 in WNW 3.2 mph 6.4 mph 60 % 0.0 in
00:25 18.5 °F 10.3 °F 1015.8 in WNW 1.6 mph 8.0 mph 59 % 0.0 in
00:35 18.3 °F 10.2 °F 1015.8 in NW 1.6 mph 4.8 mph 59 % 0.0 in
00:45 18.2 °F 10.1 °F 1016.8 in NNW 3.2 mph 3.2 mph 59 % 0.0 in
00:55 18.0 °F 9.9 °F 1016.8 in West 3.2 mph 4.8 mph 59 % 0.0 in
01:05 17.9 °F 9.8 °F 1016.8 in West 3.2 mph 4.8 mph 59 % 0.0 in
01:15 17.6 °F 9.5 °F 1016.8 in WNW 3.2 mph 4.8 mph 59 % 0.0 in
01:25 17.4 °F 9.3 °F 1015.8 in West 3.2 mph 6.4 mph 59 % 0.0 in
01:35 17.2 °F 9.1 °F 1015.8 in West 4.8 mph 4.8 mph 59 % 0.0 in
01:45 17.1 °F 9.0 °F 1016.8 in WSW 1.6 mph 6.4 mph 59 % 0.0 in
01:55 16.8 °F 9.2 °F 1016.8 in WSW 1.6 mph 3.2 mph 61 % 0.0 in
02:05 16.6 °F 9.1 °F 1016.8 in WSW 1.6 mph 6.4 mph 61 % 0.0 in
02:15 16.5 °F 8.9 °F 1016.8 in SW 1.6 mph 3.2 mph 61 % 0.0 in
02:25 16.3 °F 8.8 °F 1015.8 in South 1.6 mph 3.2 mph 61 % 0.0 in
02:35 16.2 °F 8.9 °F 1015.8 in SSW 3.2 mph 4.8 mph 62 % 0.0 in
02:45 16.1 °F 8.8 °F 1016.8 in Calm   3.2 mph 62 % 0.0 in
02:55 16.1 °F 8.8 °F 1016.8 in Calm   3.2 mph 62 % 0.0 in
03:05 16.2 °F 9.2 °F 1016.8 in Calm   4.8 mph 63 % 0.0 in
03:15 16.3 °F 9.2 °F 1016.8 in SW 1.6 mph 3.2 mph 63 % 0.0 in
03:25 16.4 °F 9.3 °F 1017.8 in SW 1.6 mph 3.2 mph 63 % 0.0 in
03:35 16.6 °F 9.5 °F 1017.8 in SW 3.2 mph 6.4 mph 63 % 0.0 in
03:45 17.1 °F 9.8 °F 1017.8 in SW 3.2 mph 6.4 mph 62 % 0.0 in
03:55 17.7 °F 10.3 °F 1017.8 in Calm   6.4 mph 62 % 0.0 in
04:05 18.0 °F 10.4 °F 1017.8 in WSW 3.2 mph 4.8 mph 61 % 0.0 in
04:15 18.8 °F 10.9 °F 1016.8 in SW 3.2 mph 3.2 mph 60 % 0.0 in
04:25 18.8 °F 10.6 °F 1017.8 in NNE 4.8 mph 4.8 mph 59 % 0.0 in
04:35 18.7 °F 10.3 °F 1017.8 in NE 3.2 mph 4.8 mph 58 % 0.0 in
04:45 19.0 °F 10.0 °F 1017.8 in NE 4.8 mph 6.4 mph 56 % 0.0 in
04:55 19.6 °F 10.6 °F 1017.8 in NE 1.6 mph 4.8 mph 56 % 0.0 in
05:05 20.4 °F 11.3 °F 1017.8 in SW 1.6 mph 1.6 mph 56 % 0.0 in
05:15 20.5 °F 11.2 °F 1017.8 in NNW 1.6 mph 4.8 mph 55 % 0.0 in
05:25 20.7 °F 11.1 °F 1016.8 in East 1.6 mph 3.2 mph 54 % 0.0 in
05:35 21.4 °F 11.7 °F 1016.8 in NNE 3.2 mph 3.2 mph 54 % 0.0 in
05:45 21.0 °F 10.8 °F 1017.8 in NW 1.6 mph 3.2 mph 52 % 0.0 in
05:55 21.9 °F 11.9 °F 1017.8 in South 1.6 mph 4.8 mph 53 % 0.0 in
06:05 22.0 °F 12.0 °F 1017.8 in WNW 3.2 mph 4.8 mph 53 % 0.0 in
11:05 22.2 °F 11.9 °F 1017.8 in North 3.9 mph 3.9 mph 52 % 0.0 in
11:10 22.7 °F 12.1 °F 1017.8 in ESE 4.7 mph 4.7 mph 51 % 0.0 in
11:15 22.5 °F 11.8 °F 1017.8 in NE 7.4 mph 7.4 mph 51 % 0.0 in
11:20 22.7 °F 12.1 °F 1017.8 in NW 3.7 mph 3.7 mph 51 % 0.0 in
11:25 22.9 °F 12.2 °F 1017.8 in West 3.7 mph 3.7 mph 51 % 0.0 in
11:30 23.3 °F 12.3 °F 1017.8 in East 7.4 mph 7.4 mph 50 % 0.0 in
11:35 23.6 °F 12.3 °F 1017.8 in NNE 5.6 mph 5.6 mph 49 % 0.0 in
11:40 24.1 °F 12.7 °F 1017.8 in NW 3.7 mph 3.7 mph 49 % 0.0 in
11:45 24.5 °F 13.1 °F 1017.8 in SW 6.1 mph 6.1 mph 49 % 0.0 in
11:50 24.3 °F 12.9 °F 1017.8 in ENE 3.7 mph 3.7 mph 49 % 0.0 in
11:55 24.2 °F 12.8 °F 1017.8 in WSW 3.9 mph 3.9 mph 49 % 0.0 in
12:00 24.1 °F 12.4 °F 1017.8 in NE 4.2 mph 4.2 mph 48 % 0.0 in
12:05 24.1 °F 12.7 °F 1017.8 in SW 3.7 mph 3.7 mph 49 % 0.0 in
12:10 24.4 °F 12.3 °F 1017.8 in East 3.7 mph 3.7 mph 47 % 0.0 in
12:15 24.7 °F 13.3 °F 1017.8 in WSW 9.3 mph 9.3 mph 49 % 0.0 in
12:20 25.0 °F 12.9 °F 1017.8 in West 7.6 mph 7.6 mph 47 % 0.0 in
12:25 25.0 °F 12.9 °F 1016.8 in SW 7.9 mph 7.9 mph 47 % 0.0 in
12:30 25.0 °F 12.9 °F 1016.8 in WSW 7.4 mph 7.6 mph 47 % 0.0 in
12:35 25.1 °F 12.7 °F 1016.8 in South 3.7 mph 3.9 mph 46 % 0.0 in
12:40 25.5 °F 13.1 °F 1015.8 in WSW 7.4 mph 7.4 mph 46 % 0.0 in
12:45 25.8 °F 13.3 °F 1015.8 in WSW 9.3 mph 9.3 mph 46 % 0.0 in
12:50 25.4 °F 12.6 °F 1015.8 in West 11.1 mph 11.1 mph 45 % 0.0 in
12:55 25.6 °F 12.4 °F 1015.8 in WSW 9.3 mph 9.3 mph 44 % 0.0 in
13:00 26.1 °F 12.9 °F 1015.8 in West 5.8 mph 5.8 mph 44 % 0.0 in
13:05 26.1 °F 12.6 °F 1015.8 in South 13.0 mph 13.0 mph 43 % 0.0 in
13:10 25.9 °F 12.3 °F 1015.8 in SW 9.3 mph 9.3 mph 43 % 0.0 in
13:15 26.1 °F 12.2 °F 1015.8 in South 5.6 mph 5.6 mph 42 % 0.0 in
13:20 26.6 °F 12.6 °F 1015.8 in SW 7.4 mph 7.4 mph 42 % 0.0 in
13:25 26.7 °F 12.7 °F 1015.8 in WNW 9.5 mph 9.5 mph 42 % 0.0 in
13:30 26.4 °F 12.4 °F 1015.8 in SW 6.4 mph 6.4 mph 42 % 0.0 in
13:35 26.5 °F 12.2 °F 1015.8 in WSW 9.3 mph 9.3 mph 41 % 0.0 in
13:40 25.8 °F 11.2 °F 1015.8 in East 13.0 mph 13.0 mph 40 % 0.0 in
13:45 26.1 °F 11.8 °F 1015.8 in North 9.3 mph 9.3 mph 41 % 0.0 in
13:50 26.2 °F 11.9 °F 1015.8 in West 9.5 mph 9.5 mph 41 % 0.0 in
13:55 26.3 °F 12.0 °F 1015.8 in NW 9.3 mph 9.3 mph 41 % 0.0 in
14:00 26.4 °F 12.1 °F 1015.8 in WSW 6.4 mph 6.4 mph 41 % 0.0 in
14:05 26.8 °F 12.4 °F 1015.8 in WNW 6.1 mph 6.1 mph 41 % 0.0 in
14:10 27.1 °F 11.9 °F 1015.8 in SSE 3.7 mph 3.7 mph 39 % 0.0 in
14:15 27.5 °F 12.3 °F 1015.8 in SW 11.1 mph 11.1 mph 39 % 0.0 in
14:20 27.4 °F 12.6 °F 1015.8 in SW 3.7 mph 3.9 mph 40 % 0.0 in
14:25 27.4 °F 11.8 °F 1014.8 in West 7.4 mph 7.4 mph 38 % 0.0 in
14:30 27.4 °F 12.2 °F 1014.8 in WNW 7.4 mph 7.4 mph 39 % 0.0 in
14:35 27.1 °F 11.9 °F 1014.8 in East 4.2 mph 4.2 mph 39 % 0.0 in
14:40 27.5 °F 11.9 °F 1014.8 in ESE 7.4 mph 7.4 mph 38 % 0.0 in
14:45 27.8 °F 11.8 °F 1014.8 in SW 3.7 mph 3.7 mph 37 % 0.0 in
14:50 28.0 °F 12.3 °F 1014.8 in SW 5.6 mph 5.6 mph 38 % 0.0 in
14:55 28.6 °F 13.3 °F 1014.8 in SW 11.1 mph 11.1 mph 39 % 0.0 in
15:00 28.1 °F 12.4 °F 1014.8 in SSW 9.3 mph 9.3 mph 38 % 0.0 in
15:05 28.1 °F 12.8 °F 1014.8 in NNE 7.4 mph 7.4 mph 39 % 0.0 in
15:10 27.7 °F 12.5 °F 1014.8 in SW 4.7 mph 4.7 mph 39 % 0.0 in
15:15 28.3 °F 13.0 °F 1014.8 in SW 5.6 mph 5.6 mph 39 % 0.0 in
15:20 28.9 °F 13.6 °F 1014.8 in NW 3.7 mph 3.7 mph 39 % 0.0 in
15:25 28.2 °F 13.3 °F 1013.8 in ESE 7.4 mph 7.4 mph 40 % 0.0 in
15:30 28.4 °F 13.5 °F 1013.8 in SE 5.0 mph 5.3 mph 40 % 0.0 in
15:35 28.3 °F 13.8 °F 1013.8 in SSW 9.3 mph 9.3 mph 41 % 0.0 in
15:40 28.5 °F 13.6 °F 1013.8 in SW 7.4 mph 7.4 mph 40 % 0.0 in
15:45 28.8 °F 13.8 °F 1013.8 in SSW 7.4 mph 7.4 mph 40 % 0.0 in
15:50 28.7 °F 13.8 °F 1013.8 in West 9.3 mph 9.3 mph 40 % 0.0 in
15:55 28.9 °F 13.9 °F 1013.8 in SSW 11.1 mph 11.1 mph 40 % 0.0 in
16:00 28.6 °F 13.7 °F 1013.8 in SSW 12.6 mph 12.6 mph 40 % 0.0 in
16:05 28.8 °F 13.8 °F 1013.8 in SW 13.0 mph 13.0 mph 40 % 0.0 in
16:10 28.2 °F 13.3 °F 1013.8 in WSW 16.7 mph 16.7 mph 40 % 0.0 in
16:15 27.8 °F 12.9 °F 1013.8 in SSW 14.8 mph 14.8 mph 40 % 0.0 in
16:20 27.9 °F 13.4 °F 1013.8 in West 14.5 mph 14.5 mph 41 % 0.0 in
16:25 27.4 °F 13.0 °F 1013.8 in SW 16.7 mph 16.7 mph 41 % 0.0 in
16:30 27.5 °F 13.4 °F 1013.8 in SW 9.3 mph 9.3 mph 42 % 0.0 in
16:35 27.4 °F 13.3 °F 1013.8 in SW 9.0 mph 9.0 mph 42 % 0.0 in
16:40 27.4 °F 13.3 °F 1013.8 in SW 9.3 mph 9.3 mph 42 % 0.0 in
16:45 27.9 °F 13.8 °F 1013.8 in WSW 9.3 mph 9.3 mph 42 % 0.0 in
16:50 28.0 °F 14.3 °F 1013.8 in SW 9.7 mph 9.7 mph 43 % 0.0 in
16:55 27.9 °F 14.2 °F 1013.8 in SW 7.9 mph 7.9 mph 43 % 0.0 in
17:00 28.1 °F 14.3 °F 1013.8 in SW 7.4 mph 7.4 mph 43 % 0.0 in
17:05 28.0 °F 14.3 °F 1013.8 in SSE 11.1 mph 11.1 mph 43 % 0.0 in
17:10 27.5 °F 13.8 °F 1013.8 in WSW 14.8 mph 14.8 mph 43 % 0.0 in
17:15 27.2 °F 13.6 °F 1013.8 in SW 11.1 mph 11.1 mph 43 % 0.0 in
17:20 27.3 °F 14.0 °F 1013.8 in SW 11.1 mph 11.1 mph 44 % 0.0 in
17:25 27.5 °F 14.2 °F 1013.8 in South 7.4 mph 7.4 mph 44 % 0.0 in
17:30 27.4 °F 14.1 °F 1013.8 in WNW 11.1 mph 11.1 mph 44 % 0.0 in
17:35 27.6 °F 14.2 °F 1013.8 in WSW 8.7 mph 8.7 mph 44 % 0.0 in
17:40 27.5 °F 14.2 °F 1013.8 in WSW 9.5 mph 9.5 mph 44 % 0.0 in
17:45 27.3 °F 14.0 °F 1013.8 in WSW 7.4 mph 7.4 mph 44 % 0.0 in
17:50 27.5 °F 14.2 °F 1013.8 in ESE 5.6 mph 5.6 mph 44 % 0.0 in
17:55 27.2 °F 14.2 °F 1013.8 in SW 9.3 mph 9.3 mph 45 % 0.0 in
18:00 26.8 °F 14.2 °F 1013.8 in WSW 9.3 mph 9.3 mph 46 % 0.0 in
18:05 26.8 °F 14.2 °F 1013.8 in SW 9.3 mph 9.3 mph 46 % 0.0 in
18:10 27.1 °F 14.2 °F 1013.8 in South 12.6 mph 12.6 mph 45 % 0.0 in
18:15 27.1 °F 14.5 °F 1013.8 in South 4.7 mph 4.7 mph 46 % 0.0 in
18:20 26.9 °F 14.6 °F 1013.8 in SSW 9.3 mph 9.3 mph 47 % 0.0 in
18:25 26.5 °F 14.3 °F 1013.8 in South 11.1 mph 11.1 mph 47 % 0.0 in
18:30 26.3 °F 14.1 °F 1013.8 in South 7.4 mph 7.4 mph 47 % 0.0 in
18:35 26.3 °F 14.4 °F 1013.8 in WNW 7.4 mph 7.4 mph 48 % 0.0 in
18:40 26.0 °F 14.1 °F 1013.8 in WSW 3.7 mph 3.9 mph 48 % 0.0 in
18:45 25.8 °F 14.3 °F 1013.8 in NE 3.5 mph 3.5 mph 49 % 0.0 in
18:50 25.4 °F 13.9 °F 1013.8 in WSW 3.9 mph 3.9 mph 49 % 0.0 in
18:55 25.5 °F 14.3 °F 1013.8 in SW 7.4 mph 7.4 mph 50 % 0.0 in
19:00 25.5 °F 14.3 °F 1013.8 in SSW 3.7 mph 3.9 mph 50 % 0.0 in
19:05 25.4 °F 14.2 °F 1013.8 in SW 3.7 mph 3.7 mph 50 % 0.0 in
19:10 25.0 °F 14.4 °F 1013.8 in NE 5.6 mph   52 % 0.0 in
19:15 24.8 °F 14.6 °F 1013.8 in ESE 3.7 mph 3.7 mph 53 % 0.0 in
19:20 24.4 °F 15.1 °F 1013.8 in ENE 6.4 mph 6.4 mph 56 % 0.0 in
19:25 24.0 °F 15.2 °F 1013.8 in East 7.4 mph 7.4 mph 58 % 0.0 in
19:30 23.8 °F 15.8 °F 1013.8 in ENE 9.3 mph 9.3 mph 61 % 0.0 in
19:35 23.7 °F 15.7 °F 1013.8 in ENE 13.0 mph 13.0 mph 61 % 0.0 in
19:40 23.6 °F 15.6 °F 1013.8 in SE 5.6 mph 5.6 mph 61 % 0.0 in
19:45 23.8 °F 15.8 °F 1013.8 in South 7.4 mph 7.4 mph 61 % 0.0 in
19:50 23.9 °F 15.1 °F 1013.8 in SSW 9.3 mph 9.3 mph 58 % 0.0 in
19:55 23.9 °F 15.1 °F 1013.8 in WSW 11.1 mph 11.1 mph 58 % 0.0 in
20:00 23.8 °F 14.8 °F 1013.8 in SW 6.1 mph 6.1 mph 57 % 0.0 in
20:05 23.7 °F 14.7 °F 1013.8 in SW 9.3 mph 9.3 mph 57 % 0.0 in
20:10 23.4 °F 14.4 °F 1013.8 in WSW 7.4 mph 7.4 mph 57 % 0.0 in
20:15 23.2 °F 13.9 °F 1013.8 in SW 9.3 mph 9.3 mph 56 % 0.0 in
20:20 23.2 °F 13.9 °F 1013.8 in WSW 5.3 mph 5.3 mph 56 % 0.0 in
20:25 23.2 °F 13.9 °F 1013.8 in SW 6.1 mph 6.1 mph 56 % 0.0 in
20:31 23.0 °F 14.0 °F 1013.8 in WSW 5.6 mph 5.6 mph 57 % 0.0 in
20:36 23.0 °F 14.0 °F 1013.8 in SW 5.8 mph 5.8 mph 57 % 0.0 in
20:41 22.8 °F 13.8 °F 1014.8 in SW 5.6 mph 5.6 mph 57 % 0.0 in
20:46 22.7 °F 13.7 °F 1014.8 in WSW 4.2 mph   57 % 0.0 in
20:51 22.7 °F 13.7 °F 1014.8 in SW 9.3 mph 9.3 mph 57 % 0.0 in
20:56 22.5 °F 13.6 °F 1014.8 in SW 3.7 mph 3.9 mph 57 % 0.0 in
21:01 22.5 °F 13.6 °F 1014.8 in WSW 5.6 mph 5.6 mph 57 % 0.0 in
21:06 22.4 °F 13.4 °F 1014.8 in West 4.7 mph 4.7 mph 57 % 0.0 in
21:11 22.3 °F 13.4 °F 1014.8 in SW 3.9 mph 3.9 mph 57 % 0.0 in
21:16 22.2 °F 13.3 °F 1014.8 in SW 3.7 mph 3.7 mph 57 % 0.0 in
21:21 22.1 °F 13.2 °F 1014.8 in WSW 5.6 mph 5.6 mph 57 % 0.0 in
21:26 22.0 °F 13.3 °F 1014.8 in West 3.7 mph 3.7 mph 58 % 0.0 in
21:31 21.9 °F 13.5 °F 1014.8 in SW 5.6 mph 5.6 mph 59 % 0.0 in
21:36 21.8 °F 13.4 °F 1014.8 in WSW 3.7 mph 3.7 mph 59 % 0.0 in
21:41 21.7 °F 13.3 °F 1015.8 in West 3.7 mph 3.7 mph 59 % 0.0 in
21:46 21.6 °F 13.2 °F 1015.8 in West 5.6 mph 5.6 mph 59 % 0.0 in
21:51 21.5 °F 13.2 °F 1015.8 in WSW 3.7 mph 3.9 mph 59 % 0.0 in
21:56 21.4 °F 13.3 °F 1015.8 in SW 3.7 mph 3.7 mph 60 % 0.0 in
22:01 21.2 °F 13.1 °F 1015.8 in SW 3.7 mph 3.7 mph 60 % 0.0 in
22:06 21.0 °F 12.9 °F 1015.8 in SW 3.7 mph 3.7 mph 60 % 0.0 in
22:11 21.0 °F 13.2 °F 1015.8 in WSW 3.7 mph 3.7 mph 61 % 0.0 in
22:16 20.9 °F 13.1 °F 1015.8 in SW 5.6 mph 5.6 mph 61 % 0.0 in
22:21 20.8 °F 13.3 °F 1015.8 in WSW 1.9 mph 1.9 mph 62 % 0.0 in
22:26 20.7 °F 13.2 °F 1015.8 in WSW 2.3 mph 2.6 mph 62 % 0.0 in
22:31 20.7 °F 13.2 °F 1015.8 in West 3.2 mph 3.2 mph 62 % 0.0 in
22:36 20.6 °F 13.1 °F 1015.8 in SW 3.9 mph 3.9 mph 62 % 0.0 in
22:41 20.6 °F 13.1 °F 1014.8 in SW 3.7 mph 3.7 mph 62 % 0.0 in
22:46 20.5 °F 12.9 °F 1014.8 in WSW 3.7 mph 3.7 mph 62 % 0.0 in
22:51 20.4 °F 13.1 °F 1014.8 in Calm     63 % 0.0 in
22:56 20.3 °F 13.0 °F 1015.8 in Calm     63 % 0.0 in
23:01 20.2 °F 12.9 °F 1015.8 in Calm     63 % 0.0 in
23:06 20.2 °F 12.9 °F 1015.8 in WSW 1.9 mph   63 % 0.0 in
23:11 20.1 °F 12.8 °F 1014.8 in Calm     63 % 0.0 in
23:16 20.1 °F 12.8 °F 1014.8 in Calm     63 % 0.0 in
23:21 20.0 °F 12.7 °F 1014.8 in Calm     63 % 0.0 in
23:26 20.0 °F 12.7 °F 1015.8 in WSW 1.9 mph   63 % 0.0 in
23:31 20.0 °F 12.7 °F 1015.8 in WSW 1.9 mph 1.9 mph 63 % 0.0 in
23:36 20.0 °F 12.7 °F 1015.8 in WSW 3.9 mph 3.9 mph 63 % 0.0 in
23:41 20.0 °F 13.0 °F 1015.8 in WSW 1.9 mph   64 % 0.0 in
23:46 20.0 °F 13.0 °F 1015.8 in WSW 1.9 mph   64 % 0.0 in
23:51 20.0 °F 13.0 °F 1015.8 in WSW 1.9 mph 1.9 mph 64 % 0.0 in
23:56 19.9 °F 13.1 °F 1014.8 in WSW 1.9 mph 2.3 mph 65 % 0.0 in
Meteo Sesrovires
Elogis d' Weather Underground - 1.5 mb

Guio original per  Jim McMurry - jmcmurry@mwt.net Adaptat per a la plantilla per  Wim van der Kuil - Leuven-Template.eu

Trobareu la nostra informacio del temps tambe a:

Weather Underground

AWEKAS